PST,Max TemperatureF,Mean TemperatureF,Min TemperatureF,Max Dew PointF,MeanDew PointF,Min DewpointF,Max Humidity, Mean Humidity, Min Humidity, Max Sea Level PressureIn, Mean Sea Level PressureIn, Min Sea Level PressureIn, Max VisibilityMiles, Mean VisibilityMiles, Min VisibilityMiles, Max Wind SpeedMPH, Mean Wind SpeedMPH, Max Gust SpeedMPH,PrecipitationIn, CloudCover, Events, WindDirDegrees
2013-2-1,67,54,41,46,43,36,93,68,42,30.27,30.21,30.16,10,10,7,20,3,23,0.00,1,,94
2013-2-2,52,49,45,49,46,45,100,92,83,30.33,30.27,30.22,10,4,0,8,3,13,0.00,7,Fog,87
2013-2-3,53,47,41,48,45,40,100,86,71,30.30,30.24,30.16,10,8,2,13,5,15,0.00,7,,228
2013-2-4,53,46,38,47,43,37,100,89,77,30.22,30.16,30.09,10,7,0,10,5,14,0.00,5,Fog,260
2013-2-5,53,51,48,48,45,42,93,82,71,30.20,30.15,30.10,10,9,3,14,5,26,0.00,6,,246
2013-2-6,55,47,39,45,42,37,100,82,64,30.25,30.20,30.16,10,8,0,12,5,16,0.00,3,Fog,198
2013-2-7,56,48,40,45,41,37,89,74,59,30.23,30.16,30.06,10,10,6,15,5,38,0.07,4,Rain,190
2013-2-8,52,47,42,41,40,37,96,78,59,30.06,30.01,29.95,10,10,3,13,6,18,0.19,5,Rain,173
2013-2-9,55,46,37,43,38,30,96,69,41,30.15,30.09,30.01,10,10,8,15,5,28,0.00,1,,174
2013-2-10,55,46,37,42,36,29,89,64,38,30.15,30.12,30.07,10,10,10,9,4,12,0.00,0,,74
2013-2-11,59,48,36,40,35,32,85,63,40,30.29,30.21,30.11,10,10,10,10,4,17,0.00,0,,151
2013-2-12,58,47,36,47,39,30,89,73,56,30.40,30.36,30.30,10,10,9,13,4,29,0.00,0,,54
2013-2-13,54,47,39,47,42,36,93,82,71,30.38,30.31,30.24,10,10,8,10,4,18,0.00,2,,53
2013-2-14,67,53,38,47,42,36,100,70,40,30.27,30.23,30.18,10,8,0,10,4,16,0.00,2,Fog,81
2013-2-15,75,60,45,46,38,33,66,47,27,30.27,30.24,30.20,10,10,8,13,5,14,0.00,0,,103
2013-2-16,73,60,47,49,39,29,86,54,22,30.23,30.15,30.09,10,10,5,13,5,16,0.00,1,,158
2013-2-17,55,52,48,48,45,43,93,80,66,30.13,30.08,30.01,10,10,8,13,6,16,0.00,6,,219
2013-2-18,51,49,46,45,41,37,86,74,61,30.12,30.07,30.01,10,10,6,14,6,26,0.00,8,,249
2013-2-19,53,46,39,45,40,34,89,76,63,30.05,29.91,29.83,10,8,2,21,8,29,0.48,7,Rain,237
2013-2-20,53,44,35,42,39,33,92,78,63,30.14,30.03,29.92,10,10,10,16,7,28,0.00,3,,267
2013-2-21,55,50,44,42,40,35,80,67,54,30.24,30.16,30.09,10,10,10,16,7,24,0.00,2,,253
2013-2-22,58,48,37,45,39,32,86,70,54,30.33,30.27,30.22,10,10,10,13,5,16,0.00,1,,221
2013-2-23,54,48,41,47,43,38,86,73,59,30.32,30.25,30.19,10,9,2,23,10,33,0.03,4,Rain,245
2013-2-24,62,50,37,41,34,23,92,59,26,30.31,30.25,30.22,10,10,7,14,6,22,0.00,0,,94
2013-2-25,56,47,37,45,41,31,89,74,59,30.32,30.26,30.20,10,10,8,14,5,18,0.00,2,,196
2013-2-26,64,51,38,42,37,27,89,57,25,30.25,30.22,30.18,10,10,9,13,5,21,0.00,0,,66
2013-2-27,58,48,38,47,38,27,74,55,35,30.42,30.34,30.25,10,10,8,14,3,17,0.00,0,,15
2013-2-28,58,50,41,49,46,36,100,84,67,30.49,30.44,30.39,10,6,0,15,4,18,0.00,3,Fog,231